Time;durP1;ratioP1;P1;durP2;ratioP2;P2;SDS_P1;SDS_P2;PMS_P1;PMS_P2;Temp;Humidity;BMP_temperature;BMP_pressure;BME280_temperature;BME280_humidity;BME280_pressure;Samples;Min_cycle;Max_cycle;Signal;HPM_P1;HPM_P2
2022/02/24 00:00:23;;;;;;;;;7.00;7.00;;;;;-147.17;100.00;59696.56;4984978;28;51043;-64
2022/02/24 00:02:50;;;;;;;;;10.00;8.33;;;;;-147.17;100.00;59696.56;4980954;28;51427;-61
2022/02/24 00:05:16;;;;;;;;;12.00;11.00;;;;;-147.17;100.00;59696.56;5013312;28;51046;-61
2022/02/24 00:07:42;;;;;;;;;11.00;10.67;;;;;-147.17;100.00;59696.56;4992399;28;51137;-62
2022/02/24 00:10:10;;;;;;;;;10.25;10.00;;;;;-147.17;100.00;59696.56;4995495;28;51236;-62
2022/02/24 00:12:37;;;;;;;;;11.50;10.50;;;;;-147.17;100.00;59696.56;5011627;28;51133;-62
2022/02/24 00:15:05;;;;;;;;;14.00;13.00;;;;;-147.17;100.00;59696.56;5013532;28;51012;-62
2022/02/24 00:17:31;;;;;;;;;12.00;11.25;;;;;-147.17;100.00;59696.56;4983256;28;51918;-61
2022/02/24 00:19:56;;;;;;;;;12.00;12.00;;;;;-147.17;100.00;59696.56;5004429;28;51144;-62
2022/02/24 00:22:22;;;;;;;;;10.67;10.67;;;;;-147.17;100.00;59696.56;4998991;28;51111;-62
2022/02/24 00:24:49;;;;;;;;;13.33;12.33;;;;;-147.17;100.00;59696.56;5008882;28;51204;-62
2022/02/24 00:27:14;;;;;;;;;10.75;10.75;;;;;-147.17;100.00;59696.56;5001216;28;51583;-62
2022/02/24 00:29:40;;;;;;;;;14.00;14.00;;;;;-147.17;100.00;59696.56;4999906;28;51114;-62
2022/02/24 00:32:05;;;;;;;;;11.33;11.33;;;;;-147.17;100.00;59696.56;5006711;28;51596;-62
2022/02/24 00:34:31;;;;;;;;;15.50;15.00;;;;;-147.17;100.00;59696.56;4973618;28;51390;-61
2022/02/24 00:36:56;;;;;;;;;16.25;15.00;;;;;-147.17;100.00;59696.56;4994820;28;53227;-61
2022/02/24 00:39:23;;;;;;;;;16.00;13.50;;;;;-147.17;100.00;59696.56;5005804;28;51216;-62
2022/02/24 00:41:48;;;;;;;;;13.75;12.50;;;;;-147.17;100.00;59696.56;4996708;28;51107;-61
2022/02/24 00:44:14;;;;;;;;;13.25;12.00;;;;;-147.17;100.00;59696.56;5005098;28;51257;-61
2022/02/24 00:46:40;;;;;;;;;14.00;11.67;;;;;-147.17;100.00;59696.56;4998492;28;51153;-61
2022/02/24 00:49:07;;;;;;;;;14.00;13.33;;;;;-147.17;100.00;59696.56;4979098;28;51206;-61
2022/02/24 00:51:33;;;;;;;;;11.00;10.67;;;;;-147.17;100.00;59696.56;4993662;28;51171;-62
2022/02/24 00:53:59;;;;;;;;;12.33;11.33;;;;;-147.17;100.00;59696.56;5002116;28;51109;-62
2022/02/24 00:56:24;;;;;;;;;10.25;8.75;;;;;-147.17;100.00;59696.56;5004390;28;51026;-61
2022/02/24 00:58:50;;;;;;;;;15.00;13.00;;;;;-147.17;100.00;59696.56;5012426;28;51509;-62
2022/02/24 01:01:16;;;;;;;;;12.33;12.33;;;;;-147.17;100.00;59696.56;5001465;28;51110;-60
2022/02/24 01:03:41;;;;;;;;;13.00;13.00;;;;;-147.17;100.00;59696.56;5009911;28;51014;-62
2022/02/24 01:06:06;;;;;;;;;14.33;13.00;;;;;-147.17;100.00;59696.56;4999477;28;51208;-62
2022/02/24 01:08:32;;;;;;;;;12.00;11.67;;;;;-147.17;100.00;59696.56;5005858;28;51058;-62
2022/02/24 01:10:57;;;;;;;;;11.67;9.00;;;;;-147.17;100.00;59696.56;4990512;28;51236;-62
2022/02/24 01:13:22;;;;;;;;;10.33;9.33;;;;;-147.17;100.00;59696.56;4993702;28;51095;-62
2022/02/24 01:15:48;;;;;;;;;10.00;8.33;;;;;-147.17;100.00;59696.56;5009111;28;51046;-62
2022/02/24 01:18:13;;;;;;;;;8.00;7.00;;;;;-147.17;100.00;59696.56;4995825;28;51157;-62
2022/02/24 01:20:39;;;;;;;;;9.67;9.67;;;;;-147.17;100.00;59696.56;5013238;28;51047;-62
2022/02/24 01:23:05;;;;;;;;;9.67;8.33;;;;;-147.17;100.00;59696.56;4994643;28;51141;-61
2022/02/24 01:25:32;;;;;;;;;11.00;7.00;;;;;-147.17;100.00;59696.56;4990221;28;54195;-62
2022/02/24 01:27:57;;;;;;;;;5.33;4.67;;;;;-147.17;100.00;59696.56;4997861;28;51038;-62
2022/02/24 01:30:23;;;;;;;;;8.00;6.00;;;;;-147.17;100.00;59696.56;4983536;28;51203;-61
2022/02/24 01:32:48;;;;;;;;;5.00;5.00;;;;;-147.17;100.00;59696.56;4997398;28;51232;-62
2022/02/24 01:35:13;;;;;;;;;5.00;5.00;;;;;-147.17;100.00;59696.56;5005898;28;51270;-62
2022/02/24 01:37:39;;;;;;;;;7.00;6.00;;;;;-147.17;100.00;59696.56;5009516;28;50904;-62
2022/02/24 01:40:06;;;;;;;;;6.67;6.00;;;;;-147.17;100.00;59696.56;5010578;28;51094;-62
2022/02/24 01:42:31;;;;;;;;;6.33;5.67;;;;;-147.17;100.00;59696.56;4993944;28;51262;-62
2022/02/24 01:44:57;;;;;;;;;5.33;4.67;;;;;-147.17;100.00;59696.56;5007436;28;51785;-62
2022/02/24 01:47:23;;;;;;;;;6.33;5.00;;;;;-147.17;100.00;59696.56;4998154;28;51195;-62
2022/02/24 01:49:48;;;;;;;;;6.00;6.00;;;;;-147.17;100.00;59696.56;4999695;28;51011;-61
2022/02/24 01:52:14;;;;;;;;;10.75;9.50;;;;;-147.17;100.00;59696.56;4994112;28;51459;-61
2022/02/24 01:54:41;;;;;;;;;8.33;7.00;;;;;-147.17;100.00;59696.56;5008712;28;51848;-61
2022/02/24 01:57:08;;;;;;;;;7.00;7.00;;;;;-147.17;100.00;59696.56;5011363;28;51131;-61
2022/02/24 01:59:34;;;;;;;;;11.33;11.00;;;;;-147.17;100.00;59696.56;4995089;28;51209;-61
2022/02/24 02:01:59;;;;;;;;;9.67;8.00;;;;;-147.17;100.00;59696.56;5003202;28;51101;-62
2022/02/24 02:04:26;;;;;;;;;6.00;6.00;;;;;-147.17;100.00;59696.56;5009819;28;51712;-62
2022/02/24 02:06:53;;;;;;;;;6.67;6.00;;;;;-147.17;100.00;59696.56;5007429;28;51114;-62
2022/02/24 02:09:20;;;;;;;;;11.33;10.00;;;;;-147.17;100.00;59696.56;4992769;28;51225;-62
2022/02/24 02:11:45;;;;;;;;;7.00;5.67;;;;;-147.17;100.00;59696.56;4997979;28;50867;-62
2022/02/24 02:14:12;;;;;;;;;6.33;6.33;;;;;-147.17;100.00;59696.56;5010824;28;51778;-61
2022/02/24 02:16:48;;;;;;;;;6.00;6.00;;;;;-147.17;100.00;59696.56;5010987;28;51115;-61
2022/02/24 02:19:15;;;;;;;;;7.50;7.50;;;;;-147.17;100.00;59696.56;5006267;28;51106;-63
2022/02/24 02:21:40;;;;;;;;;8.67;7.33;;;;;-147.17;100.00;59696.56;5005036;28;51193;-63
2022/02/24 02:24:06;;;;;;;;;6.00;5.25;;;;;-147.17;100.00;59696.56;5012266;28;52092;-63
2022/02/24 02:26:32;;;;;;;;;9.67;6.67;;;;;-147.17;100.00;59696.56;5008516;28;51084;-61
2022/02/24 02:29:02;;;;;;;;;6.00;6.00;;;;;-147.17;100.00;59696.56;4999304;28;51152;-63
2022/02/24 02:31:28;;;;;;;;;9.67;7.33;;;;;-147.17;100.00;59696.56;5001321;28;51100;-62
2022/02/24 02:34:23;;;;;;;;;9.33;8.67;;;;;-147.17;100.00;59696.56;5010475;28;51776;-62
2022/02/24 02:36:49;;;;;;;;;6.00;6.00;;;;;-147.17;100.00;59696.56;4999463;28;51225;-62
2022/02/24 02:39:15;;;;;;;;;8.67;8.67;;;;;-147.17;100.00;59696.56;5003482;28;51081;-62
2022/02/24 02:41:43;;;;;;;;;6.00;5.33;;;;;-147.17;100.00;59696.56;4998549;28;51135;-62
2022/02/24 02:44:10;;;;;;;;;10.33;8.33;;;;;-147.17;100.00;59696.56;5003606;28;52218;-63
2022/02/24 02:46:36;;;;;;;;;7.33;7.33;;;;;-147.17;100.00;59696.56;4995662;28;51179;-61
2022/02/24 02:49:01;;;;;;;;;7.67;7.33;;;;;-147.17;100.00;59696.56;5000342;28;51132;-61
2022/02/24 02:51:27;;;;;;;;;7.00;6.33;;;;;-147.17;100.00;59696.56;5003840;28;51683;-62
2022/02/24 02:53:52;;;;;;;;;8.67;5.33;;;;;-147.17;100.00;59696.56;5000365;28;52045;-62
2022/02/24 02:56:18;;;;;;;;;12.00;10.00;;;;;-147.17;100.00;59696.56;5012440;28;51172;-62
2022/02/24 02:58:43;;;;;;;;;9.00;7.67;;;;;-147.17;100.00;59696.56;4989843;28;51529;-62
2022/02/24 03:01:09;;;;;;;;;10.00;7.67;;;;;-147.17;100.00;59696.56;5000015;28;51025;-61
2022/02/24 03:03:34;;;;;;;;;7.33;6.33;;;;;-147.17;100.00;59696.56;4994860;28;51769;-63
2022/02/24 03:06:00;;;;;;;;;10.67;9.33;;;;;-147.17;100.00;59696.56;5007438;28;51023;-62
2022/02/24 03:08:25;;;;;;;;;7.00;7.00;;;;;-147.17;100.00;59696.56;4993626;28;51470;-62
2022/02/24 03:10:51;;;;;;;;;6.00;5.00;;;;;-147.17;100.00;59696.56;5004571;28;51257;-61
2022/02/24 03:13:18;;;;;;;;;6.00;5.00;;;;;-147.17;100.00;59696.56;5008829;28;52248;-61
2022/02/24 03:15:43;;;;;;;;;10.00;9.67;;;;;-147.17;100.00;59696.56;5010066;28;51180;-62
2022/02/24 03:18:09;;;;;;;;;9.00;7.33;;;;;-147.17;100.00;59696.56;4988678;28;51282;-61
2022/02/24 03:20:35;;;;;;;;;8.33;8.00;;;;;-147.17;100.00;59696.56;5008773;28;51117;-63
2022/02/24 03:23:02;;;;;;;;;7.33;7.33;;;;;-147.17;100.00;59696.56;5010633;28;51163;-61
2022/02/24 03:25:28;;;;;;;;;9.00;7.33;;;;;-147.17;100.00;59696.56;4998784;28;51051;-61
2022/02/24 03:27:54;;;;;;;;;6.67;5.67;;;;;-147.17;100.00;59696.56;5010680;28;51111;-61
2022/02/24 03:30:20;;;;;;;;;6.33;6.33;;;;;-147.17;100.00;59696.56;5005593;28;51227;-62
2022/02/24 03:32:46;;;;;;;;;7.67;6.33;;;;;-147.17;100.00;59696.56;5008820;28;51292;-61
2022/02/24 03:35:12;;;;;;;;;8.33;6.00;;;;;-147.17;100.00;59696.56;5012973;28;51343;-61
2022/02/24 03:37:38;;;;;;;;;4.00;4.00;;;;;-147.17;100.00;59696.56;4997086;28;51137;-61
2022/02/24 03:40:04;;;;;;;;;5.67;5.67;;;;;-147.17;100.00;59696.56;5001361;28;51322;-62
2022/02/24 03:42:30;;;;;;;;;6.00;5.67;;;;;-147.17;100.00;59696.56;5007160;28;51173;-62
2022/02/24 03:44:56;;;;;;;;;7.00;4.67;;;;;-147.17;100.00;59696.56;5013917;28;50889;-62
2022/02/24 03:47:25;;;;;;;;;8.33;6.67;;;;;-147.17;100.00;59696.56;4998379;28;51158;-62
2022/02/24 03:49:51;;;;;;;;;6.00;6.00;;;;;-147.17;100.00;59696.56;4999472;28;51142;-62
2022/02/24 03:52:17;;;;;;;;;5.00;5.00;;;;;-147.17;100.00;59696.56;4997370;28;52366;-61
2022/02/24 03:54:43;;;;;;;;;7.00;6.00;;;;;-147.17;100.00;59696.56;5017026;28;51133;-61
2022/02/24 03:57:09;;;;;;;;;5.00;5.00;;;;;-147.17;100.00;59696.56;4998250;28;51306;-62
2022/02/24 03:59:35;;;;;;;;;7.67;5.33;;;;;-147.17;100.00;59696.56;4988591;28;51377;-62
2022/02/24 04:02:01;;;;;;;;;4.67;4.00;;;;;-147.17;100.00;59696.56;5001307;28;53059;-62
2022/02/24 04:04:26;;;;;;;;;9.00;5.33;;;;;-147.17;100.00;59696.56;5004349;28;51073;-61
2022/02/24 04:06:52;;;;;;;;;6.00;4.67;;;;;-147.17;100.00;59696.56;4990607;28;51148;-61
2022/02/24 04:09:17;;;;;;;;;1.00;0.00;;;;;-147.17;100.00;59696.56;5000133;28;51104;-62
2022/02/24 04:11:42;;;;;;;;;8.00;5.00;;;;;-147.17;100.00;59696.56;4997050;28;51618;-62
2022/02/24 04:14:08;;;;;;;;;4.33;4.33;;;;;-147.17;100.00;59696.56;5009360;28;51259;-63
2022/02/24 04:16:33;;;;;;;;;5.33;5.00;;;;;-147.17;100.00;59696.56;5007661;28;51279;-62
2022/02/24 04:18:58;;;;;;;;;6.00;5.00;;;;;-147.17;100.00;59696.56;4989785;28;50961;-61
2022/02/24 04:21:24;;;;;;;;;5.33;5.33;;;;;-147.17;100.00;59696.56;5009385;28;51203;-61
2022/02/24 04:23:49;;;;;;;;;10.00;8.33;;;;;-147.17;100.00;59696.56;5000091;28;50995;-61
2022/02/24 04:26:15;;;;;;;;;7.33;6.33;;;;;-147.17;100.00;59696.56;5011477;28;50978;-62
2022/02/24 04:28:41;;;;;;;;;6.00;6.00;;;;;-147.17;100.00;59696.56;5009801;28;51166;-62
2022/02/24 04:31:07;;;;;;;;;6.00;5.00;;;;;-147.17;100.00;59696.56;4998523;28;51759;-61
2022/02/24 04:33:32;;;;;;;;;4.00;3.33;;;;;-147.17;100.00;59696.56;5006779;28;51080;-61
2022/02/24 04:35:58;;;;;;;;;5.00;4.67;;;;;-147.17;100.00;59696.56;4992656;28;51176;-63
2022/02/24 04:38:23;;;;;;;;;9.00;7.67;;;;;-147.17;100.00;59696.56;5009962;28;51070;-62
2022/02/24 04:40:48;;;;;;;;;5.33;4.00;;;;;-147.17;100.00;59696.56;5014213;28;50985;-62
2022/02/24 04:43:14;;;;;;;;;5.67;5.00;;;;;-147.17;100.00;59696.56;5001728;28;50948;-62
2022/02/24 04:45:39;;;;;;;;;6.00;5.00;;;;;-147.17;100.00;59696.56;5008893;28;51024;-61
2022/02/24 04:48:06;;;;;;;;;4.67;4.67;;;;;-147.17;100.00;59696.56;5011565;28;51121;-64
2022/02/24 04:50:32;;;;;;;;;4.00;4.00;;;;;-147.17;100.00;59696.56;4988239;28;51791;-61
2022/02/24 04:52:57;;;;;;;;;5.00;4.67;;;;;-147.17;100.00;59696.56;4998315;28;51207;-60
2022/02/24 04:55:22;;;;;;;;;5.33;4.33;;;;;-147.17;100.00;59696.56;5018925;28;51638;-63
2022/02/24 04:57:48;;;;;;;;;5.33;4.00;;;;;-147.17;100.00;59696.56;4998857;28;51023;-62
2022/02/24 05:00:14;;;;;;;;;4.00;3.67;;;;;-147.17;100.00;59696.56;5006872;28;51673;-63
2022/02/24 05:02:39;;;;;;;;;5.00;4.67;;;;;-147.17;100.00;59696.56;4994888;28;51023;-62
2022/02/24 05:05:05;;;;;;;;;5.33;5.00;;;;;-147.17;100.00;59696.56;4995456;28;51054;-61
2022/02/24 05:07:30;;;;;;;;;4.00;3.67;;;;;-147.17;100.00;59696.56;5000556;28;51280;-61
2022/02/24 05:09:55;;;;;;;;;4.00;4.00;;;;;-147.17;100.00;59696.56;4998744;28;51661;-62
2022/02/24 05:12:21;;;;;;;;;4.00;4.00;;;;;-147.17;100.00;59696.56;5006268;28;51895;-62
2022/02/24 05:14:46;;;;;;;;;9.00;5.00;;;;;-147.17;100.00;59696.56;5006206;28;51188;-62
2022/02/24 05:17:11;;;;;;;;;8.00;4.67;;;;;-147.17;100.00;59696.56;5001957;28;51370;-62
2022/02/24 05:19:37;;;;;;;;;8.33;5.33;;;;;-147.17;100.00;59696.56;5008383;28;51427;-62
2022/02/24 05:22:02;;;;;;;;;6.33;6.33;;;;;-147.17;100.00;59696.56;5006347;28;51212;-62
2022/02/24 05:24:28;;;;;;;;;4.00;4.00;;;;;-147.17;100.00;59696.56;4980296;28;51406;-62
2022/02/24 05:26:53;;;;;;;;;8.33;8.00;;;;;-147.17;100.00;59696.56;4986884;28;51341;-62
2022/02/24 05:29:18;;;;;;;;;4.00;4.00;;;;;-147.17;100.00;59696.56;5009070;28;51150;-62
2022/02/24 05:31:45;;;;;;;;;4.00;4.00;;;;;-147.17;100.00;59696.56;5009173;28;51133;-62
2022/02/24 05:34:10;;;;;;;;;3.67;3.00;;;;;-147.17;100.00;59696.56;4998199;28;50955;-62
2022/02/24 05:36:38;;;;;;;;;3.33;3.33;;;;;-147.17;100.00;59696.56;4973163;28;51249;-62
2022/02/24 05:39:04;;;;;;;;;3.00;3.00;;;;;-147.17;100.00;59696.56;4988467;28;53105;-61
2022/02/24 05:41:29;;;;;;;;;4.00;3.33;;;;;-147.17;100.00;59696.56;4989688;28;51668;-62
2022/02/24 05:43:55;;;;;;;;;5.00;3.67;;;;;-147.17;100.00;59696.56;4993963;28;51586;-62
2022/02/24 05:46:20;;;;;;;;;5.00;4.00;;;;;-147.17;100.00;59696.56;5001341;28;51174;-61
2022/02/24 05:48:46;;;;;;;;;4.33;3.67;;;;;-147.17;100.00;59696.56;5005800;28;51715;-62
2022/02/24 05:51:11;;;;;;;;;4.00;4.00;;;;;-147.17;100.00;59696.56;4992563;28;51161;-61
2022/02/24 05:53:37;;;;;;;;;5.00;5.00;;;;;-147.17;100.00;59696.56;5011292;28;51229;-61
2022/02/24 05:56:03;;;;;;;;;5.00;4.67;;;;;-147.17;100.00;59696.56;5004773;28;50861;-62
2022/02/24 05:58:28;;;;;;;;;5.00;2.33;;;;;-147.17;100.00;59696.56;4994572;28;51701;-62
2022/02/24 06:00:54;;;;;;;;;7.00;5.00;;;;;-147.17;100.00;59696.56;4995635;28;51720;-62
2022/02/24 06:03:19;;;;;;;;;4.00;3.00;;;;;-147.17;100.00;59696.56;4997087;28;51266;-62
2022/02/24 06:05:46;;;;;;;;;4.00;4.00;;;;;-147.17;100.00;59696.56;5013075;28;51148;-62
2022/02/24 06:08:11;;;;;;;;;7.67;7.00;;;;;-147.17;100.00;59696.56;5011278;28;52005;-62
2022/02/24 06:10:36;;;;;;;;;4.67;4.00;;;;;-147.17;100.00;59696.56;5011904;28;51057;-62
2022/02/24 06:13:02;;;;;;;;;8.00;5.00;;;;;-147.17;100.00;59696.56;5001825;28;50987;-61
2022/02/24 06:15:27;;;;;;;;;2.67;2.00;;;;;-147.17;100.00;59696.56;5012787;28;51010;-61
2022/02/24 06:17:53;;;;;;;;;4.33;4.00;;;;;-147.17;100.00;59696.56;4998955;28;51666;-62
2022/02/24 06:20:18;;;;;;;;;4.00;3.67;;;;;-147.17;100.00;59696.56;5008430;28;51270;-63
2022/02/24 06:22:47;;;;;;;;;8.00;5.00;;;;;-147.17;100.00;59696.56;4996222;28;51401;-62
2022/02/24 06:25:13;;;;;;;;;4.67;4.00;;;;;-147.17;100.00;59696.56;4977339;28;51257;-62
2022/02/24 06:27:38;;;;;;;;;3.00;2.33;;;;;-147.17;100.00;59696.56;5003103;28;52048;-62
2022/02/24 06:30:05;;;;;;;;;6.00;3.67;;;;;-147.17;100.00;59696.56;4994935;28;52414;-62
2022/02/24 06:32:30;;;;;;;;;2.67;2.67;;;;;-147.17;100.00;59696.56;4997066;28;51340;-61
2022/02/24 06:34:56;;;;;;;;;5.00;4.00;;;;;-147.17;100.00;59696.56;5006055;28;51118;-60
2022/02/24 06:37:21;;;;;;;;;4.75;3.25;;;;;-147.17;100.00;59696.56;5007847;28;51134;-61
2022/02/24 06:39:47;;;;;;;;;7.67;3.33;;;;;-147.17;100.00;59696.56;4999596;28;51400;-62
2022/02/24 06:42:13;;;;;;;;;4.00;3.67;;;;;-147.17;100.00;59696.56;5006445;28;51087;-61
2022/02/24 06:44:38;;;;;;;;;2.33;1.67;;;;;-147.17;100.00;59696.56;5010490;28;51007;-62
2022/02/24 06:47:04;;;;;;;;;3.00;2.00;;;;;-147.17;100.00;59696.56;4981258;28;51851;-62
2022/02/24 06:49:29;;;;;;;;;3.67;3.67;;;;;-147.17;100.00;59696.56;5003735;28;51173;-61
2022/02/24 06:51:57;;;;;;;;;4.33;4.00;;;;;-147.17;100.00;59696.56;5002581;28;51214;-62
2022/02/24 06:54:23;;;;;;;;;3.00;3.00;;;;;-147.17;100.00;59696.56;5010677;28;51542;-62
2022/02/24 06:56:48;;;;;;;;;3.67;3.33;;;;;-147.17;100.00;59696.56;5002790;28;51807;-61
2022/02/24 06:59:13;;;;;;;;;4.33;4.00;;;;;-147.17;100.00;59696.56;4996687;28;51185;-61
2022/02/24 07:01:39;;;;;;;;;5.00;3.67;;;;;-147.17;100.00;59696.56;5015622;28;51105;-63
2022/02/24 07:04:04;;;;;;;;;5.00;4.00;;;;;-147.17;100.00;59696.56;4999602;28;51192;-62
2022/02/24 07:06:30;;;;;;;;;3.00;3.00;;;;;-147.17;100.00;59696.56;4997533;28;52659;-62
2022/02/24 07:08:56;;;;;;;;;7.33;5.67;;;;;-147.17;100.00;59696.56;5000230;28;51185;-62
2022/02/24 07:11:23;;;;;;;;;4.33;4.00;;;;;-147.17;100.00;59696.56;5009926;28;51255;-61
2022/02/24 07:13:48;;;;;;;;;3.00;3.00;;;;;-147.17;100.00;59696.56;5021558;28;51198;-62
2022/02/24 07:16:14;;;;;;;;;5.00;3.00;;;;;-147.17;100.00;59696.56;5006009;28;51927;-62
2022/02/24 07:18:39;;;;;;;;;5.67;5.67;;;;;-147.17;100.00;59696.56;5009228;28;52637;-63
2022/02/24 07:21:05;;;;;;;;;4.67;4.00;;;;;-147.17;100.00;59696.56;5004919;28;51274;-63
2022/02/24 07:23:30;;;;;;;;;4.25;4.00;;;;;-147.17;100.00;59696.56;5004323;28;51189;-62
2022/02/24 07:25:58;;;;;;;;;5.50;5.50;;;;;-147.17;100.00;59696.56;5003159;28;51326;-63
2022/02/24 07:28:24;;;;;;;;;5.00;4.33;;;;;-147.17;100.00;59696.56;5011621;28;51184;-62
2022/02/24 07:30:49;;;;;;;;;7.00;4.00;;;;;-147.17;100.00;59696.56;5014908;28;51225;-64
2022/02/24 07:33:15;;;;;;;;;7.00;5.00;;;;;-147.17;100.00;59696.56;4994616;28;51200;-62
2022/02/24 07:35:41;;;;;;;;;5.00;3.33;;;;;-147.17;100.00;59696.56;5001571;28;51116;-63
2022/02/24 07:38:06;;;;;;;;;10.25;8.75;;;;;-147.17;100.00;59696.56;4999454;28;51267;-62
2022/02/24 07:40:32;;;;;;;;;3.33;3.00;;;;;-147.17;100.00;59696.56;5001462;28;51359;-64
2022/02/24 07:42:57;;;;;;;;;4.00;3.00;;;;;-147.17;100.00;59696.56;4993255;28;51245;-62
2022/02/24 07:45:23;;;;;;;;;4.00;3.00;;;;;-147.17;100.00;59696.56;5013473;28;50931;-63
2022/02/24 07:47:48;;;;;;;;;5.00;4.00;;;;;-147.17;100.00;59696.56;5010802;28;51103;-63
2022/02/24 07:50:14;;;;;;;;;4.00;4.00;;;;;-147.17;100.00;59696.56;5010367;28;51461;-62
2022/02/24 07:52:46;;;;;;;;;3.67;2.67;;;;;-147.17;100.00;59696.56;5004405;28;51078;-62
2022/02/24 07:55:13;;;;;;;;;3.00;3.00;;;;;-147.17;100.00;59696.56;5016540;28;51730;-63
2022/02/24 07:57:42;;;;;;;;;3.00;2.33;;;;;-147.17;100.00;59696.56;4996015;28;51186;-62
2022/02/24 08:00:13;;;;;;;;;5.00;5.00;;;;;-147.17;100.00;59696.56;5013497;28;50999;-62
2022/02/24 08:02:40;;;;;;;;;3.33;2.67;;;;;-147.17;100.00;59696.56;5000874;28;51146;-63
2022/02/24 08:05:06;;;;;;;;;4.00;4.00;;;;;-147.17;100.00;59696.56;4999640;28;52020;-63
2022/02/24 08:07:31;;;;;;;;;4.00;3.67;;;;;-147.17;100.00;59696.56;5004914;28;51030;-63
2022/02/24 08:09:56;;;;;;;;;3.67;3.67;;;;;-147.17;100.00;59696.56;5009196;28;51165;-63
2022/02/24 08:12:42;;;;;;;;;4.33;4.00;;;;;-147.17;100.00;59696.56;4990858;28;51401;-63
2022/02/24 08:15:12;;;;;;;;;5.00;4.00;;;;;-147.17;100.00;59696.56;5005396;28;51159;-61
2022/02/24 08:17:39;;;;;;;;;3.33;2.67;;;;;-147.17;100.00;59696.56;4998082;28;52244;-63
2022/02/24 08:20:07;;;;;;;;;3.00;3.00;;;;;-147.17;100.00;59696.56;5000312;28;51274;-63
2022/02/24 08:22:34;;;;;;;;;1.67;1.67;;;;;-147.17;100.00;59696.56;5005916;28;51284;-62
2022/02/24 08:25:00;;;;;;;;;4.00;4.00;;;;;-147.17;100.00;59696.56;5005508;28;51179;-63
2022/02/24 08:27:25;;;;;;;;;3.00;3.00;;;;;-147.17;100.00;59696.56;5001107;28;51233;-62
2022/02/24 08:29:51;;;;;;;;;3.00;3.00;;;;;-147.17;100.00;59696.56;5007584;28;51758;-62
2022/02/24 08:32:16;;;;;;;;;3.00;2.00;;;;;-147.17;100.00;59696.56;4992402;28;51297;-64
2022/02/24 08:34:41;;;;;;;;;3.33;3.00;;;;;-147.17;100.00;59696.56;4991632;28;51871;-63
2022/02/24 08:37:07;;;;;;;;;6.33;3.00;;;;;-147.17;100.00;59696.56;5002073;28;51162;-61
2022/02/24 08:39:32;;;;;;;;;5.33;5.00;;;;;-147.17;100.00;59696.56;5021093;28;51185;-62
2022/02/24 08:41:58;;;;;;;;;3.00;2.67;;;;;-147.17;100.00;59696.56;4987353;28;51230;-62
2022/02/24 08:44:23;;;;;;;;;1.67;1.67;;;;;-147.17;100.00;59696.56;4995723;28;51946;-62
2022/02/24 08:46:48;;;;;;;;;4.33;3.67;;;;;-147.17;100.00;59696.56;5009363;28;51120;-62
2022/02/24 08:49:14;;;;;;;;;5.00;4.00;;;;;-147.17;100.00;59696.56;5009464;28;51188;-62
2022/02/24 08:51:40;;;;;;;;;2.33;1.67;;;;;-147.17;100.00;59696.56;5007366;28;51353;-62
2022/02/24 08:54:06;;;;;;;;;4.00;3.00;;;;;-147.17;100.00;59696.56;4993204;28;54150;-62
2022/02/24 08:56:31;;;;;;;;;3.00;3.00;;;;;-147.17;100.00;59696.56;5004528;28;51169;-62
2022/02/24 08:58:57;;;;;;;;;4.00;3.00;;;;;-147.17;100.00;59696.56;5013268;28;51100;-61
2022/02/24 09:01:22;;;;;;;;;3.33;3.33;;;;;-147.17;100.00;59696.56;5003496;28;51303;-63
2022/02/24 09:03:48;;;;;;;;;3.33;2.00;;;;;-147.17;100.00;59696.56;4982521;28;51118;-62
2022/02/24 09:06:16;;;;;;;;;2.33;2.33;;;;;-147.17;100.00;59696.56;5005573;28;51264;-61
2022/02/24 09:08:44;;;;;;;;;2.00;1.00;;;;;-147.17;100.00;59696.56;5005543;28;51229;-62
2022/02/24 09:11:10;;;;;;;;;3.00;2.67;;;;;-147.17;100.00;59696.56;4996632;28;51358;-61
2022/02/24 09:13:39;;;;;;;;;4.00;3.00;;;;;-147.17;100.00;59696.56;4993954;28;52046;-59
2022/02/24 09:16:05;;;;;;;;;4.67;4.00;;;;;-147.17;100.00;59696.56;5000284;28;51201;-62
2022/02/24 09:18:30;;;;;;;;;4.00;4.00;;;;;-147.17;100.00;59696.56;5003955;28;51175;-61
2022/02/24 09:20:56;;;;;;;;;5.00;3.00;;;;;-147.17;100.00;59696.56;4999931;28;51007;-62
2022/02/24 09:23:21;;;;;;;;;4.00;3.00;;;;;-147.17;100.00;59696.56;5007014;28;52040;-61
2022/02/24 09:25:48;;;;;;;;;4.00;3.00;;;;;-147.17;100.00;59696.56;5002434;28;51092;-61
2022/02/24 09:28:14;;;;;;;;;3.00;2.00;;;;;-147.17;100.00;59696.56;5005740;28;51784;-62
2022/02/24 09:30:40;;;;;;;;;3.33;2.00;;;;;-147.17;100.00;59696.56;5014061;28;51101;-62
2022/02/24 09:33:05;;;;;;;;;2.00;2.00;;;;;-147.17;100.00;59696.56;5001850;28;52812;-62
2022/02/24 09:35:32;;;;;;;;;4.00;4.00;;;;;-147.17;100.00;59696.56;5008204;28;51147;-62
2022/02/24 09:37:58;;;;;;;;;4.00;4.00;;;;;-147.17;100.00;59696.56;5007662;28;51351;-61
2022/02/24 09:40:25;;;;;;;;;4.00;3.00;;;;;-147.17;100.00;59696.56;4994899;28;51206;-62
2022/02/24 09:42:51;;;;;;;;;2.00;1.67;;;;;-147.17;100.00;59696.56;4997863;28;51179;-62
2022/02/24 09:45:17;;;;;;;;;1.67;1.67;;;;;-147.17;100.00;59696.56;4995152;28;51140;-62
2022/02/24 09:47:43;;;;;;;;;4.00;3.00;;;;;-147.17;100.00;59696.56;5013037;28;50994;-62
2022/02/24 09:50:09;;;;;;;;;0.67;0.67;;;;;-147.17;100.00;59696.56;5002450;28;51152;-62
2022/02/24 09:52:34;;;;;;;;;2.33;2.33;;;;;-147.17;100.00;59696.56;4999540;28;51735;-62
2022/02/24 09:55:00;;;;;;;;;3.00;2.00;;;;;-147.17;100.00;59696.56;5012730;28;51337;-62
2022/02/24 09:57:25;;;;;;;;;6.00;5.00;;;;;-147.17;100.00;59696.56;4994698;28;51170;-62
2022/02/24 09:59:51;;;;;;;;;1.00;1.00;;;;;-147.17;100.00;59696.56;5013338;28;51147;-62
2022/02/24 10:02:16;;;;;;;;;1.67;1.67;;;;;-147.17;100.00;59696.56;5011744;28;51165;-63
2022/02/24 10:05:12;;;;;;;;;3.00;3.00;;;;;-147.17;100.00;59696.56;5000672;28;51135;-62
2022/02/24 10:07:40;;;;;;;;;2.00;2.00;;;;;-147.17;100.00;59696.56;5002020;28;51139;-64
2022/02/24 10:10:33;;;;;;;;;4.00;3.00;;;;;-147.17;100.00;59696.56;4996673;28;51305;-63
2022/02/24 10:13:07;;;;;;;;;4.00;3.00;;;;;-147.17;100.00;59696.56;4998006;28;51125;-63
2022/02/24 10:15:33;;;;;;;;;6.33;3.67;;;;;-147.17;100.00;59696.56;5003630;28;51109;-63
2022/02/24 10:18:18;;;;;;;;;2.00;1.67;;;;;-147.17;100.00;59696.56;4997503;28;51514;-62
2022/02/24 10:20:48;;;;;;;;;2.33;2.33;;;;;-147.17;100.00;59696.56;4997903;28;51134;-63
2022/02/24 10:23:16;;;;;;;;;3.67;3.00;;;;;-147.17;100.00;59696.56;5012068;28;50995;-63
2022/02/24 10:25:45;;;;;;;;;7.33;6.00;;;;;-147.17;100.00;59696.56;5012544;28;51166;-63
2022/02/24 10:28:29;;;;;;;;;3.00;2.67;;;;;-147.17;100.00;59696.56;5010225;28;50971;-63
2022/02/24 10:30:54;;;;;;;;;4.00;3.33;;;;;-147.17;100.00;59696.56;4998676;28;51255;-63
2022/02/24 10:33:30;;;;;;;;;4.00;3.33;;;;;-147.17;100.00;59696.56;5006140;28;51820;-63
2022/02/24 10:36:10;;;;;;;;;2.00;2.00;;;;;-147.17;100.00;59696.56;4987618;28;51167;-63
2022/02/24 10:38:36;;;;;;;;;8.33;8.33;;;;;-147.17;100.00;59696.56;4992333;28;51182;-64
2022/02/24 10:41:01;;;;;;;;;7.33;7.00;;;;;-147.17;100.00;59696.56;4992261;28;51000;-63
2022/02/24 10:43:31;;;;;;;;;6.67;4.33;;;;;-147.17;100.00;59696.56;5002615;28;52076;-63
2022/02/24 10:45:56;;;;;;;;;4.33;2.67;;;;;-147.17;100.00;59696.56;5001195;28;51066;-63
2022/02/24 10:48:21;;;;;;;;;4.00;4.00;;;;;-147.17;100.00;59696.56;5004789;28;54048;-64
2022/02/24 10:50:48;;;;;;;;;1.00;0.33;;;;;-147.17;100.00;59696.56;5006760;28;51344;-64
2022/02/24 10:53:15;;;;;;;;;2.67;2.33;;;;;-147.17;100.00;59696.56;5006266;28;52130;-64
2022/02/24 10:55:57;;;;;;;;;3.67;3.67;;;;;-147.17;100.00;59696.56;4999112;28;51090;-63
2022/02/24 10:58:24;;;;;;;;;6.33;4.33;;;;;-147.17;100.00;59696.56;5005470;28;50948;-65
2022/02/24 11:01:06;;;;;;;;;4.67;4.00;;;;;-147.17;100.00;59696.56;5002860;28;51250;-62
2022/02/24 11:03:31;;;;;;;;;3.50;3.50;;;;;-147.17;100.00;59696.56;4999158;28;51890;-63